Kansas City International Airport
KMCI : now visible

Airfield :











YOU CAN JOIN US ON...

 
LOGIN :

Register | Disclaimer

   EN    FR    IT 

 









Legend :    VFR   Marginal VFR   IFR   Intensive IFR   Very Intensive IFR
Visi :
Ceiling :
>= 8 km
>= 3000ft
5 to 8 km
1000 to 3000 ft
1500m to 5 km
500 to 1000 ft
800 to 1500m
200 to 500 ft
< 800m
< 200 ft
Symbols :   Thunderstorms  Fog  Heavy snow  Heavy precipitations  Wind > 20 kt






- Airport Elevation : 1026 ft
- IATA code : MCI


KMCI - Kansas City International

CURRENT METAR :
  • 280453Z 23003KT 6SM BR BKN029 OVC070 19/18 A2988 RMK AO2 SLP111 T01940183

EXPIRED METARs :
  • 280353Z 29004KT 7SM OVC065 19/19 A2988 RMK AO2 RAE53 SLP109 P0002 T01940189
  • 280253Z 30006KT 9SM -RA FEW025 SCT033 OVC070 20/18 A2987 RMK AO2 RAB19 SLP107 P0000 60000 T02000183 53010
  • 280242Z 29005KT 10SM -RA SCT026 BKN031 OVC070 20/18 A2987 RMK AO2 RAB19 P0000 T02000183
  • 280213Z 28003KT 10SM BKN026 OVC100 21/18 A2987 RMK AO2 T02060183

TAF KMCI
Valid from the 28 at 03:00 until the 29 at 00:00 UTC


280326Z 2803/2824 30005KT 6SM -SHRA BR SCT025 OVC050
TEMPO 2804/2806 3SM -RA BR SCT015 BKN025
FM280600 30003KT P6SM BKN009
FM281000 31005KT 5SM -RA BR BKN007 OVC015
FM281600 33007KT P6SM VCSH BKN015
KZKC FIR / North America



MET'MAP, your aeronautical weather chart ! - Copyright ORBIFLY December 2007 - Disclaimer

ORBIFLY MET'MAP TEAM :

Programming & Development : Alexandra Zaïnal
Concept & original design : Baudouin d'Aumeries
Assistance for programming : Marc-Olivier Méhu
Technical & hardware support : Manuel Goepfert

Contact : metmap@orbifly.com




SOURCES & CREDITS :

   NOAA       Earth
Advisory